Time;durP1;ratioP1;P1;durP2;ratioP2;P2;SDS_P1;SDS_P2;PMS_P1;PMS_P2;Temp;Humidity;BMP_temperature;BMP_pressure;BME280_temperature;BME280_humidity;BME280_pressure;Samples;Min_cycle;Max_cycle;Signal;HPM_P1;HPM_P2
2024/01/01 00:00:39;;;;;;;12.05;7.80;;;;;;;;;;4936968;29;20112;-66
2024/01/01 00:03:04;;;;;;;9.15;7.32;;;;;;;;;;4920288;29;20025;-66
2024/01/01 00:05:30;;;;;;;11.43;7.43;;;;;;;;;;4916810;29;20048;-68
2024/01/01 00:07:56;;;;;;;11.00;7.75;;;;;;;;;;4912028;29;20438;-67
2024/01/01 00:10:22;;;;;;;11.02;7.85;;;;;;;;;;4898924;29;20044;-68
2024/01/01 00:12:48;;;;;;;14.07;8.82;;;;;;;;;;4898901;29;20114;-65
2024/01/01 00:15:13;;;;;;;8.10;7.00;;;;;;;;;;4882015;29;20120;-66
2024/01/01 00:17:40;;;;;;;10.73;7.97;;;;;;;;;;4898357;29;20039;-66
2024/01/01 00:20:07;;;;;;;17.67;7.85;;;;;;;;;;4898772;29;20036;-66
2024/01/01 00:22:32;;;;;;;11.90;8.07;;;;;;;;;;4898794;29;20032;-66
2024/01/01 00:24:59;;;;;;;9.43;7.32;;;;;;;;;;4899032;29;20613;-69
2024/01/01 00:27:25;;;;;;;11.40;7.63;;;;;;;;;;4898555;29;20056;-66
2024/01/01 00:29:51;;;;;;;8.90;7.18;;;;;;;;;;4898592;29;20111;-67
2024/01/01 00:32:16;;;;;;;10.48;7.68;;;;;;;;;;4898527;29;20084;-69
2024/01/01 00:34:44;;;;;;;10.35;7.30;;;;;;;;;;4898691;29;20036;-67
2024/01/01 00:37:10;;;;;;;9.82;7.18;;;;;;;;;;4897964;29;20060;-68
2024/01/01 00:39:35;;;;;;;10.50;7.28;;;;;;;;;;4898246;29;20185;-67
2024/01/01 00:42:01;;;;;;;8.73;7.28;;;;;;;;;;4898454;29;20036;-67
2024/01/01 00:44:27;;;;;;;10.45;7.18;;;;;;;;;;4915906;29;20057;-68
2024/01/01 00:46:52;;;;;;;10.02;7.30;;;;;;;;;;4916731;29;20048;-67
2024/01/01 00:49:18;;;;;;;11.38;7.50;;;;;;;;;;4917219;29;20066;-66
2024/01/01 00:51:44;;;;;;;10.10;7.40;;;;;;;;;;4917391;29;20473;-67
2024/01/01 00:54:12;;;;;;;9.85;7.18;;;;;;;;;;4917098;29;20078;-66
2024/01/01 00:56:37;;;;;;;9.23;7.30;;;;;;;;;;4916577;29;20024;-68
2024/01/01 00:59:03;;;;;;;8.30;7.22;;;;;;;;;;4917802;29;20031;-67
2024/01/01 01:01:29;;;;;;;8.98;6.65;;;;;;;;;;4916924;29;20397;-66
2024/01/01 01:03:54;;;;;;;9.95;7.28;;;;;;;;;;4916928;29;20023;-66
2024/01/01 01:06:20;;;;;;;8.98;6.90;;;;;;;;;;4916553;29;20028;-66
2024/01/01 01:08:46;;;;;;;9.05;6.72;;;;;;;;;;4916902;29;20036;-68
2024/01/01 01:11:12;;;;;;;9.88;7.30;;;;;;;;;;4917101;29;20025;-67
2024/01/01 01:13:37;;;;;;;9.07;7.15;;;;;;;;;;4916665;29;20031;-66
2024/01/01 01:16:03;;;;;;;8.05;6.65;;;;;;;;;;4916564;29;20020;-66
2024/01/01 01:18:29;;;;;;;9.43;7.20;;;;;;;;;;4899771;29;20028;-66
2024/01/01 01:20:55;;;;;;;9.30;7.10;;;;;;;;;;4916618;29;20040;-66
2024/01/01 01:23:20;;;;;;;8.77;6.78;;;;;;;;;;4916534;29;20020;-67
2024/01/01 01:25:46;;;;;;;7.88;6.22;;;;;;;;;;4916559;29;20034;-67
2024/01/01 01:28:20;;;;;;;7.85;6.30;;;;;;;;;;4899516;29;20488;-67
2024/01/01 01:30:46;;;;;;;7.60;6.22;;;;;;;;;;4916716;29;20027;-67
2024/01/01 01:33:11;;;;;;;9.25;6.85;;;;;;;;;;4916432;29;20028;-66
2024/01/01 01:35:37;;;;;;;8.52;6.80;;;;;;;;;;4916239;29;20028;-67
2024/01/01 01:38:02;;;;;;;8.55;6.10;;;;;;;;;;4916099;29;20040;-66
2024/01/01 01:40:28;;;;;;;7.78;6.25;;;;;;;;;;4916949;29;20061;-66
2024/01/01 01:42:54;;;;;;;8.82;6.57;;;;;;;;;;4916093;29;20036;-66
2024/01/01 01:45:19;;;;;;;8.63;6.80;;;;;;;;;;4916468;29;20060;-66
2024/01/01 01:47:45;;;;;;;7.55;6.72;;;;;;;;;;4916167;29;20532;-66
2024/01/01 01:50:11;;;;;;;8.40;6.63;;;;;;;;;;4899091;29;20115;-66
2024/01/01 01:52:39;;;;;;;7.80;6.53;;;;;;;;;;4899606;29;20115;-67
2024/01/01 01:55:05;;;;;;;9.73;6.75;;;;;;;;;;4916503;29;20035;-67
2024/01/01 01:57:33;;;;;;;8.23;6.32;;;;;;;;;;4916020;29;20079;-66
2024/01/01 01:59:59;;;;;;;9.43;6.57;;;;;;;;;;4916186;29;20107;-66
2024/01/01 02:02:28;;;;;;;9.07;6.82;;;;;;;;;;4916374;29;20115;-66
2024/01/01 02:04:53;;;;;;;8.05;6.55;;;;;;;;;;4915728;29;20061;-67
2024/01/01 02:07:20;;;;;;;8.90;6.70;;;;;;;;;;4916198;29;20032;-67
2024/01/01 02:09:46;;;;;;;10.65;6.68;;;;;;;;;;4916198;29;20024;-67
2024/01/01 02:12:12;;;;;;;8.82;6.75;;;;;;;;;;4916054;29;20031;-66
2024/01/01 02:14:37;;;;;;;8.90;6.55;;;;;;;;;;4916397;29;20111;-67
2024/01/01 02:17:03;;;;;;;8.57;6.82;;;;;;;;;;4916384;29;20060;-66
2024/01/01 02:19:29;;;;;;;8.25;6.85;;;;;;;;;;4916124;29;20056;-66
2024/01/01 02:21:56;;;;;;;8.45;6.25;;;;;;;;;;4915993;29;20538;-66
2024/01/01 02:24:22;;;;;;;8.23;6.28;;;;;;;;;;4916066;29;20112;-66
2024/01/01 02:26:48;;;;;;;8.38;6.70;;;;;;;;;;4916084;29;20056;-67
2024/01/01 02:29:14;;;;;;;7.28;6.38;;;;;;;;;;4916195;29;20087;-67
2024/01/01 02:31:40;;;;;;;7.85;6.68;;;;;;;;;;4899126;29;20373;-66
2024/01/01 02:34:06;;;;;;;8.13;6.28;;;;;;;;;;4915946;29;20032;-67
2024/01/01 02:36:36;;;;;;;8.35;6.40;;;;;;;;;;4915979;29;20028;-67
2024/01/01 02:39:02;;;;;;;7.45;6.03;;;;;;;;;;4915803;29;20108;-66
2024/01/01 02:41:28;;;;;;;6.80;6.10;;;;;;;;;;4898804;29;20063;-66
2024/01/01 02:43:54;;;;;;;8.10;6.00;;;;;;;;;;4916109;29;20028;-66
2024/01/01 02:46:19;;;;;;;7.43;6.50;;;;;;;;;;4915831;29;20024;-68
2024/01/01 02:48:45;;;;;;;9.75;6.78;;;;;;;;;;4915723;29;20409;-67
2024/01/01 02:51:11;;;;;;;9.23;6.78;;;;;;;;;;4915858;29;20048;-67
2024/01/01 02:53:36;;;;;;;7.55;5.90;;;;;;;;;;4915933;29;20103;-68
2024/01/01 02:56:02;;;;;;;8.40;6.40;;;;;;;;;;4913741;29;20446;-67
2024/01/01 02:58:28;;;;;;;7.85;6.53;;;;;;;;;;4915756;29;20028;-66
2024/01/01 03:00:54;;;;;;;6.85;6.15;;;;;;;;;;4915591;29;20481;-67
2024/01/01 03:03:19;;;;;;;7.10;5.72;;;;;;;;;;4913753;29;20032;-67
2024/01/01 03:05:45;;;;;;;7.82;6.18;;;;;;;;;;4911808;29;20036;-67
2024/01/01 03:08:11;;;;;;;8.10;6.35;;;;;;;;;;4913428;29;20035;-66
2024/01/01 03:10:37;;;;;;;7.68;5.95;;;;;;;;;;4915841;29;20028;-68
2024/01/01 03:13:03;;;;;;;8.13;6.13;;;;;;;;;;4918011;29;20469;-67
2024/01/01 03:15:28;;;;;;;7.25;6.22;;;;;;;;;;4917867;29;20103;-67
2024/01/01 03:17:54;;;;;;;6.63;5.80;;;;;;;;;;4916626;29;20024;-67
2024/01/01 03:20:19;;;;;;;7.43;6.15;;;;;;;;;;4917332;29;20035;-67
2024/01/01 03:22:45;;;;;;;7.70;6.10;;;;;;;;;;4917870;29;20055;-67
2024/01/01 03:25:11;;;;;;;7.03;6.32;;;;;;;;;;4918533;29;20103;-67
2024/01/01 03:27:37;;;;;;;7.97;6.25;;;;;;;;;;4918396;29;20032;-67
2024/01/01 03:30:06;;;;;;;8.25;5.78;;;;;;;;;;4918610;29;20401;-67
2024/01/01 03:32:35;;;;;;;7.55;6.25;;;;;;;;;;4918757;29;20016;-67
2024/01/01 03:35:01;;;;;;;7.43;6.10;;;;;;;;;;4918873;29;20031;-67
2024/01/01 03:37:27;;;;;;;8.13;6.28;;;;;;;;;;4918741;29;20028;-67
2024/01/01 03:39:52;;;;;;;7.22;5.97;;;;;;;;;;4918384;29;20046;-67
2024/01/01 03:42:18;;;;;;;6.60;5.90;;;;;;;;;;4918559;29;20103;-67
2024/01/01 03:44:43;;;;;;;7.30;6.10;;;;;;;;;;4901676;29;20025;-67
2024/01/01 03:47:09;;;;;;;7.60;6.22;;;;;;;;;;4918675;29;20036;-67
2024/01/01 03:49:35;;;;;;;6.88;5.57;;;;;;;;;;4917907;29;20024;-67
2024/01/01 03:52:00;;;;;;;7.68;6.20;;;;;;;;;;4918423;29;20493;-67
2024/01/01 03:54:26;;;;;;;7.40;5.43;;;;;;;;;;4918332;29;20096;-67
2024/01/01 03:56:52;;;;;;;12.73;5.90;;;;;;;;;;4918326;29;20060;-66
2024/01/01 03:59:17;;;;;;;8.95;6.50;;;;;;;;;;4918304;29;20548;-67
2024/01/01 04:01:43;;;;;;;8.02;6.53;;;;;;;;;;4918140;29;20113;-67
2024/01/01 04:04:09;;;;;;;7.05;5.55;;;;;;;;;;4918215;29;20030;-67
2024/01/01 04:06:35;;;;;;;8.68;5.93;;;;;;;;;;4918118;29;20051;-67
2024/01/01 04:09:02;;;;;;;6.60;5.90;;;;;;;;;;4918105;29;20490;-67
2024/01/01 04:11:27;;;;;;;6.40;5.78;;;;;;;;;;4918088;29;20028;-67
2024/01/01 04:13:53;;;;;;;8.48;6.00;;;;;;;;;;4918181;29;20028;-67
2024/01/01 04:16:18;;;;;;;7.55;6.03;;;;;;;;;;4918035;29;20111;-67
2024/01/01 04:18:44;;;;;;;7.10;5.97;;;;;;;;;;4918006;29;20536;-67
2024/01/01 04:21:09;;;;;;;6.82;5.93;;;;;;;;;;4916675;29;20094;-66
2024/01/01 04:23:35;;;;;;;7.75;6.20;;;;;;;;;;4918092;29;20040;-67
2024/01/01 04:26:00;;;;;;;7.75;5.65;;;;;;;;;;4917995;29;20032;-67
2024/01/01 04:28:26;;;;;;;6.47;5.70;;;;;;;;;;4917997;29;20032;-66
2024/01/01 04:30:51;;;;;;;8.02;5.80;;;;;;;;;;4917764;29;20028;-67
2024/01/01 04:33:19;;;;;;;8.55;6.00;;;;;;;;;;4917569;29;20036;-66
2024/01/01 04:35:45;;;;;;;7.35;5.88;;;;;;;;;;4917866;29;20034;-66
2024/01/01 04:38:10;;;;;;;6.55;5.63;;;;;;;;;;4917576;29;20135;-67
2024/01/01 04:40:36;;;;;;;6.15;5.47;;;;;;;;;;4917421;29;20501;-67
2024/01/01 04:43:02;;;;;;;7.25;5.68;;;;;;;;;;4917793;29;20024;-65
2024/01/01 04:45:28;;;;;;;7.60;5.82;;;;;;;;;;4917380;29;20115;-66
2024/01/01 04:47:53;;;;;;;8.00;5.70;;;;;;;;;;4917390;29;20414;-66
2024/01/01 04:50:19;;;;;;;7.07;5.68;;;;;;;;;;4917348;29;20103;-66
2024/01/01 04:52:44;;;;;;;7.57;6.00;;;;;;;;;;4917322;29;20038;-66
2024/01/01 04:55:10;;;;;;;10.02;6.03;;;;;;;;;;4917289;29;20132;-66
2024/01/01 04:57:35;;;;;;;8.65;6.07;;;;;;;;;;4917471;29;20034;-65
2024/01/01 05:00:02;;;;;;;7.45;5.75;;;;;;;;;;4917033;29;20021;-64
2024/01/01 05:02:28;;;;;;;8.05;5.90;;;;;;;;;;4917119;29;20111;-65
2024/01/01 05:04:53;;;;;;;7.45;5.75;;;;;;;;;;4917065;29;20091;-66
2024/01/01 05:07:19;;;;;;;5.72;5.13;;;;;;;;;;4916975;29;20383;-65
2024/01/01 05:09:44;;;;;;;6.50;5.80;;;;;;;;;;4917085;29;20032;-65
2024/01/01 05:12:13;;;;;;;8.38;5.82;;;;;;;;;;4916905;29;20024;-67
2024/01/01 05:14:39;;;;;;;6.63;5.82;;;;;;;;;;4917461;29;20085;-66
2024/01/01 05:17:04;;;;;;;6.80;5.85;;;;;;;;;;4917134;29;20441;-66
2024/01/01 05:19:30;;;;;;;7.18;6.05;;;;;;;;;;4916809;29;20490;-65
2024/01/01 05:21:55;;;;;;;6.43;4.95;;;;;;;;;;4916729;29;20036;-65
2024/01/01 05:24:21;;;;;;;6.38;5.65;;;;;;;;;;4916779;29;20068;-66
2024/01/01 05:26:46;;;;;;;7.57;5.68;;;;;;;;;;4916697;29;20027;-66
2024/01/01 05:29:12;;;;;;;6.53;5.25;;;;;;;;;;4916746;29;20099;-66
2024/01/01 05:31:37;;;;;;;10.35;5.80;;;;;;;;;;4916330;29;20055;-66
2024/01/01 05:34:03;;;;;;;6.22;5.60;;;;;;;;;;4916606;29;20500;-66
2024/01/01 05:36:29;;;;;;;6.93;5.82;;;;;;;;;;4916820;29;20051;-66
2024/01/01 05:38:55;;;;;;;6.07;5.25;;;;;;;;;;4916283;29;20043;-66
2024/01/01 05:41:20;;;;;;;6.95;5.70;;;;;;;;;;4916511;29;20465;-66
2024/01/01 05:43:46;;;;;;;6.63;5.55;;;;;;;;;;4916542;29;20039;-66
2024/01/01 05:46:11;;;;;;;6.30;5.63;;;;;;;;;;4916674;29;20043;-66
2024/01/01 05:48:37;;;;;;;7.28;5.70;;;;;;;;;;4916471;29;20099;-66
2024/01/01 05:51:03;;;;;;;6.90;5.65;;;;;;;;;;4916584;29;20040;-67
2024/01/01 05:53:28;;;;;;;6.38;5.40;;;;;;;;;;4916315;29;20024;-66
2024/01/01 05:55:54;;;;;;;7.55;5.95;;;;;;;;;;4916322;29;20079;-66
2024/01/01 05:58:19;;;;;;;6.20;5.38;;;;;;;;;;4916514;29;20025;-66
2024/01/01 06:00:45;;;;;;;6.53;5.53;;;;;;;;;;4916405;29;20043;-66
2024/01/01 06:03:10;;;;;;;7.10;5.82;;;;;;;;;;4916510;29;20031;-66
2024/01/01 06:05:36;;;;;;;6.60;5.57;;;;;;;;;;4916219;29;20381;-66
2024/01/01 06:08:05;;;;;;;7.10;5.15;;;;;;;;;;4916216;29;20032;-66
2024/01/01 06:10:32;;;;;;;6.60;5.77;;;;;;;;;;4916284;29;20039;-66
2024/01/01 06:12:58;;;;;;;7.22;5.57;;;;;;;;;;4916071;29;20028;-66
2024/01/01 06:15:24;;;;;;;5.97;5.35;;;;;;;;;;4916204;29;20024;-66
2024/01/01 06:17:50;;;;;;;7.05;5.38;;;;;;;;;;4916409;29;20020;-65
2024/01/01 06:20:16;;;;;;;7.93;5.68;;;;;;;;;;4916055;29;20028;-66
2024/01/01 06:22:43;;;;;;;6.80;5.28;;;;;;;;;;4916341;29;20037;-67
2024/01/01 06:25:10;;;;;;;7.82;5.35;;;;;;;;;;4916061;29;20040;-66
2024/01/01 06:27:36;;;;;;;7.70;5.63;;;;;;;;;;4916328;29;20060;-66
2024/01/01 06:30:03;;;;;;;6.45;5.20;;;;;;;;;;4916060;29;20095;-66
2024/01/01 06:32:28;;;;;;;6.03;5.43;;;;;;;;;;4915901;29;20024;-66
2024/01/01 06:34:54;;;;;;;6.57;5.38;;;;;;;;;;4915952;29;20047;-67
2024/01/01 06:37:19;;;;;;;7.20;6.00;;;;;;;;;;4915972;29;20020;-67
2024/01/01 06:39:45;;;;;;;5.78;5.18;;;;;;;;;;4915763;29;20075;-66
2024/01/01 06:42:10;;;;;;;6.45;5.22;;;;;;;;;;4915931;29;20147;-67
2024/01/01 06:44:36;;;;;;;9.05;5.80;;;;;;;;;;4918732;29;20036;-67
2024/01/01 06:47:03;;;;;;;6.05;4.93;;;;;;;;;;4919590;29;20025;-67
2024/01/01 06:49:29;;;;;;;6.63;5.32;;;;;;;;;;4919547;29;20086;-67
2024/01/01 06:51:54;;;;;;;6.40;5.53;;;;;;;;;;4919478;29;20469;-67
2024/01/01 06:54:20;;;;;;;6.43;5.75;;;;;;;;;;4919492;29;20068;-67
2024/01/01 06:56:45;;;;;;;7.20;5.50;;;;;;;;;;4919624;29;20111;-67
2024/01/01 06:59:12;;;;;;;7.00;5.40;;;;;;;;;;4919327;29;20513;-67
2024/01/01 07:01:38;;;;;;;6.25;5.07;;;;;;;;;;4919252;29;20374;-67
2024/01/01 07:04:03;;;;;;;5.95;5.03;;;;;;;;;;4919461;29;20059;-67
2024/01/01 07:06:29;;;;;;;6.63;5.40;;;;;;;;;;4919487;29;20469;-67
2024/01/01 07:08:55;;;;;;;5.80;4.90;;;;;;;;;;4919180;29;20032;-67
2024/01/01 07:11:20;;;;;;;5.55;4.78;;;;;;;;;;4919010;29;20024;-68
2024/01/01 07:13:46;;;;;;;5.22;4.72;;;;;;;;;;4919086;29;20032;-68
2024/01/01 07:16:11;;;;;;;5.35;4.85;;;;;;;;;;4919052;29;20091;-68
2024/01/01 07:18:37;;;;;;;5.45;4.82;;;;;;;;;;4919061;29;20105;-67
2024/01/01 07:21:03;;;;;;;6.28;5.10;;;;;;;;;;4919857;29;20032;-68
2024/01/01 07:23:30;;;;;;;6.00;4.80;;;;;;;;;;4920473;29;20016;-67
2024/01/01 07:25:56;;;;;;;5.55;4.88;;;;;;;;;;4918835;29;20024;-67
2024/01/01 07:28:25;;;;;;;6.00;4.72;;;;;;;;;;4919084;29;20028;-67
2024/01/01 07:30:53;;;;;;;6.10;5.22;;;;;;;;;;4918646;29;20047;-66
2024/01/01 07:33:20;;;;;;;6.63;5.18;;;;;;;;;;4918719;29;20493;-67
2024/01/01 07:35:45;;;;;;;5.78;4.93;;;;;;;;;;4918624;29;20035;-66
2024/01/01 07:38:11;;;;;;;5.95;4.93;;;;;;;;;;4918414;29;20080;-66
2024/01/01 07:40:36;;;;;;;6.78;4.75;;;;;;;;;;4918631;29;20561;-67
2024/01/01 07:43:03;;;;;;;5.70;4.80;;;;;;;;;;4918558;29;20024;-67
2024/01/01 07:45:29;;;;;;;6.47;4.95;;;;;;;;;;4918472;29;20052;-67
2024/01/01 07:47:54;;;;;;;5.78;5.15;;;;;;;;;;4918526;29;20032;-67
2024/01/01 07:50:20;;;;;;;5.55;4.80;;;;;;;;;;4918422;29;20451;-67
2024/01/01 07:52:45;;;;;;;5.30;4.63;;;;;;;;;;4918724;29;20032;-67
2024/01/01 07:55:12;;;;;;;5.35;4.57;;;;;;;;;;4918202;29;20469;-67
2024/01/01 07:57:38;;;;;;;5.72;4.70;;;;;;;;;;4918297;29;20024;-66
2024/01/01 08:00:06;;;;;;;5.47;4.97;;;;;;;;;;4918483;29;20032;-66
2024/01/01 08:02:32;;;;;;;5.88;4.93;;;;;;;;;;4919239;29;20028;-66
2024/01/01 08:04:59;;;;;;;5.63;4.75;;;;;;;;;;4918111;29;20092;-67
2024/01/01 08:07:24;;;;;;;5.10;4.57;;;;;;;;;;4918181;29;20061;-66
2024/01/01 08:09:50;;;;;;;7.55;4.88;;;;;;;;;;4918009;29;20025;-67
2024/01/01 08:12:16;;;;;;;5.30;4.70;;;;;;;;;;4918264;29;20036;-67
2024/01/01 08:14:41;;;;;;;6.55;4.72;;;;;;;;;;4901042;29;20028;-67
2024/01/01 08:17:08;;;;;;;6.30;4.93;;;;;;;;;;4917864;29;20028;-67
2024/01/01 08:19:34;;;;;;;7.78;4.68;;;;;;;;;;4900876;29;20032;-67
2024/01/01 08:22:00;;;;;;;5.25;4.72;;;;;;;;;;4917755;29;20091;-67
2024/01/01 08:24:25;;;;;;;5.95;4.85;;;;;;;;;;4918063;29;20031;-67
2024/01/01 08:26:51;;;;;;;5.53;4.68;;;;;;;;;;4917790;29;20385;-67
2024/01/01 08:29:16;;;;;;;5.75;4.82;;;;;;;;;;4917663;29;20032;-67
2024/01/01 08:31:42;;;;;;;5.47;4.88;;;;;;;;;;4917994;29;20035;-67
2024/01/01 08:34:08;;;;;;;5.75;4.63;;;;;;;;;;4917669;29;20024;-66
2024/01/01 08:36:34;;;;;;;5.78;4.80;;;;;;;;;;4917833;29;20032;-66
2024/01/01 08:38:59;;;;;;;5.60;4.63;;;;;;;;;;4917546;29;20398;-66
2024/01/01 08:41:25;;;;;;;6.35;4.78;;;;;;;;;;4917318;29;20036;-67
2024/01/01 08:43:56;;;;;;;5.38;4.45;;;;;;;;;;4917465;29;20032;-66
2024/01/01 08:46:25;;;;;;;4.93;4.10;;;;;;;;;;4917508;29;20493;-66
2024/01/01 08:48:54;;;;;;;5.20;4.63;;;;;;;;;;4917355;29;20060;-67
2024/01/01 08:51:20;;;;;;;5.50;4.60;;;;;;;;;;4917340;29;20059;-67
2024/01/01 08:53:45;;;;;;;5.35;4.30;;;;;;;;;;4917268;29;20059;-67
2024/01/01 08:56:11;;;;;;;5.20;4.35;;;;;;;;;;4917155;29;20029;-66
2024/01/01 08:58:37;;;;;;;5.38;4.35;;;;;;;;;;4917273;29;20028;-67
2024/01/01 09:01:03;;;;;;;6.40;4.45;;;;;;;;;;4917116;29;20032;-67
2024/01/01 09:03:29;;;;;;;5.03;4.32;;;;;;;;;;4917149;29;20028;-67
2024/01/01 09:05:58;;;;;;;5.15;4.40;;;;;;;;;;4916481;29;20036;-67
2024/01/01 09:08:24;;;;;;;5.45;4.45;;;;;;;;;;4916818;29;20028;-66
2024/01/01 09:10:50;;;;;;;5.50;4.55;;;;;;;;;;4916878;29;20035;-67
2024/01/01 09:13:16;;;;;;;5.38;4.80;;;;;;;;;;4917007;29;20382;-65
2024/01/01 09:15:42;;;;;;;4.63;4.07;;;;;;;;;;4916778;29;20023;-66
2024/01/01 09:18:07;;;;;;;4.47;4.07;;;;;;;;;;4916730;29;20024;-66
2024/01/01 09:20:34;;;;;;;5.13;4.32;;;;;;;;;;4916586;29;20047;-65
2024/01/01 09:22:59;;;;;;;4.60;4.18;;;;;;;;;;4916739;29;20394;-66
2024/01/01 09:25:25;;;;;;;5.80;4.30;;;;;;;;;;4899732;29;20024;-66
2024/01/01 09:27:50;;;;;;;5.15;4.40;;;;;;;;;;4916932;29;20492;-66
2024/01/01 09:30:17;;;;;;;5.50;4.53;;;;;;;;;;4916695;29;20485;-67
2024/01/01 09:32:42;;;;;;;4.95;4.43;;;;;;;;;;4916709;29;20024;-66
2024/01/01 09:35:08;;;;;;;5.45;4.53;;;;;;;;;;4916561;29;20500;-66
2024/01/01 09:37:34;;;;;;;5.47;4.43;;;;;;;;;;4916348;29;20036;-67
2024/01/01 09:40:00;;;;;;;4.70;4.20;;;;;;;;;;4916365;29;20047;-66
2024/01/01 09:42:25;;;;;;;5.65;4.38;;;;;;;;;;4916470;29;20042;-67
2024/01/01 09:44:53;;;;;;;4.57;4.05;;;;;;;;;;4916455;29;20103;-67
2024/01/01 09:47:18;;;;;;;5.50;4.40;;;;;;;;;;4916435;29;20076;-66
2024/01/01 09:49:44;;;;;;;4.38;3.95;;;;;;;;;;4916470;29;20024;-66
2024/01/01 09:52:16;;;;;;;4.88;4.20;;;;;;;;;;4916648;29;20111;-66
2024/01/01 09:54:42;;;;;;;5.90;4.38;;;;;;;;;;4916372;29;20024;-65
2024/01/01 09:57:07;;;;;;;4.60;4.05;;;;;;;;;;4916339;29;20036;-66
2024/01/01 09:59:37;;;;;;;4.80;4.20;;;;;;;;;;4916351;29;20063;-66
2024/01/01 10:02:04;;;;;;;4.93;4.30;;;;;;;;;;4916322;29;20084;-66
2024/01/01 10:04:30;;;;;;;4.13;3.72;;;;;;;;;;4916245;29;20020;-67
2024/01/01 10:06:55;;;;;;;5.50;4.05;;;;;;;;;;4916239;29;20024;-67
2024/01/01 10:09:21;;;;;;;5.05;4.30;;;;;;;;;;4916291;29;20111;-66
2024/01/01 10:11:47;;;;;;;4.57;3.83;;;;;;;;;;4916240;29;20536;-66
2024/01/01 10:14:12;;;;;;;4.70;4.13;;;;;;;;;;4916170;29;20025;-65
2024/01/01 10:16:39;;;;;;;4.25;3.85;;;;;;;;;;4916205;29;20473;-66
2024/01/01 10:19:05;;;;;;;4.82;4.13;;;;;;;;;;4918276;29;20675;-65
2024/01/01 10:21:35;;;;;;;5.05;4.03;;;;;;;;;;4919924;29;20113;-66
2024/01/01 10:24:13;;;;;;;;;;;;;;;;;;4920494;29;20035;-65
2024/01/01 10:26:43;;;;;;;4.30;3.90;;;;;;;;;;4919928;29;20372;-66
2024/01/01 10:29:12;;;;;;;4.43;4.00;;;;;;;;;;4919848;29;20042;-65
2024/01/01 10:31:44;;;;;;;4.70;4.20;;;;;;;;;;4919889;29;20425;-66
2024/01/01 10:34:11;;;;;;;6.07;4.25;;;;;;;;;;4919808;29;20036;-66
2024/01/01 10:36:37;;;;;;;4.68;4.20;;;;;;;;;;4919708;29;20035;-66
2024/01/01 10:39:05;;;;;;;4.75;4.20;;;;;;;;;;4919540;29;20040;-66
2024/01/01 10:41:34;;;;;;;4.78;3.90;;;;;;;;;;4919616;29;20036;-65
2024/01/01 10:44:06;;;;;;;4.25;3.85;;;;;;;;;;4919927;29;20036;-66
2024/01/01 10:46:37;;;;;;;4.55;4.15;;;;;;;;;;4919621;29;20032;-66
2024/01/01 10:49:08;;;;;;;4.38;3.97;;;;;;;;;;4919536;29;20038;-66
2024/01/01 10:51:42;;;;;;;4.32;3.92;;;;;;;;;;4919844;29;20091;-66
2024/01/01 10:54:34;;;;;;;4.65;4.20;;;;;;;;;;4919445;29;20028;-67
2024/01/01 10:57:24;;;;;;;4.53;3.75;;;;;;;;;;4890274;29;20040;-66
2024/01/01 11:00:08;;;;;;;4.43;4.03;;;;;;;;;;4919672;29;20163;-67
2024/01/01 11:02:34;;;;;;;4.88;4.20;;;;;;;;;;4919395;29;20035;-66
2024/01/01 11:05:10;;;;;;;4.43;4.00;;;;;;;;;;4919554;29;20032;-66
2024/01/01 11:07:54;;;;;;;4.45;4.05;;;;;;;;;;4919459;29;20039;-66
2024/01/01 11:10:45;;;;;;;4.47;3.95;;;;;;;;;;4919217;29;20060;-66
2024/01/01 11:13:12;;;;;;;5.40;4.13;;;;;;;;;;4919364;29;20040;-66
2024/01/01 11:15:48;;;;;;;4.43;3.72;;;;;;;;;;4919301;29;20481;-66
2024/01/01 11:18:16;;;;;;;4.40;3.90;;;;;;;;;;4919117;29;20043;-65
2024/01/01 11:20:54;;;;;;;4.15;3.75;;;;;;;;;;4918932;29;20578;-65
2024/01/01 11:23:46;;;;;;;4.30;3.90;;;;;;;;;;4919014;29;20040;-66
2024/01/01 11:26:24;;;;;;;5.63;3.95;;;;;;;;;;4918890;29;20027;-67
2024/01/01 11:29:25;;;;;;;4.35;3.90;;;;;;;;;;4918302;29;20107;-66
2024/01/01 11:32:00;;;;;;;4.22;3.83;;;;;;;;;;4918858;29;20083;-66
2024/01/01 11:34:25;;;;;;;4.82;4.05;;;;;;;;;;4918743;29;20024;-66
2024/01/01 11:36:52;;;;;;;4.72;4.07;;;;;;;;;;4918787;29;20083;-66
2024/01/01 11:39:21;;;;;;;4.53;3.90;;;;;;;;;;4918486;29;20119;-66
2024/01/01 11:41:47;;;;;;;6.43;3.78;;;;;;;;;;4918543;29;20375;-67
2024/01/01 11:44:14;;;;;;;4.65;4.10;;;;;;;;;;4918496;29;20053;-67
2024/01/01 11:46:40;;;;;;;4.18;3.78;;;;;;;;;;4918351;29;20503;-67
2024/01/01 11:49:07;;;;;;;6.78;3.55;;;;;;;;;;4918484;29;20524;-67
2024/01/01 11:51:53;;;;;;;4.20;3.72;;;;;;;;;;4917214;29;20032;-68
2024/01/01 11:54:18;;;;;;;4.20;3.80;;;;;;;;;;4916518;29;20032;-68
2024/01/01 11:56:49;;;;;;;4.00;3.60;;;;;;;;;;4917160;29;20031;-67
2024/01/01 11:59:16;;;;;;;4.05;3.65;;;;;;;;;;4916014;29;20024;-68
2024/01/01 12:01:43;;;;;;;4.40;3.78;;;;;;;;;;4916305;29;20115;-67
2024/01/01 12:04:09;;;;;;;4.25;3.80;;;;;;;;;;4916837;29;20062;-68
2024/01/01 12:06:36;;;;;;;3.75;3.40;;;;;;;;;;4917192;29;20116;-69
2024/01/01 12:09:20;;;;;;;4.95;3.95;;;;;;;;;;4916998;29;20483;-68
2024/01/01 12:11:46;;;;;;;4.18;3.78;;;;;;;;;;4915010;29;20402;-67
2024/01/01 12:14:12;;;;;;;4.80;4.30;;;;;;;;;;4916990;29;20023;-67
2024/01/01 12:16:37;;;;;;;4.43;3.60;;;;;;;;;;4916853;29;20027;-67
2024/01/01 12:19:05;;;;;;;4.20;3.80;;;;;;;;;;4915648;29;20024;-67
2024/01/01 12:21:40;;;;;;;4.82;3.75;;;;;;;;;;4916688;29;20035;-68
2024/01/01 12:24:13;;;;;;;4.78;3.78;;;;;;;;;;4915086;29;20050;-68
2024/01/01 12:26:39;;;;;;;4.07;3.63;;;;;;;;;;4915950;29;20035;-67
2024/01/01 12:29:15;;;;;;;4.28;3.80;;;;;;;;;;4905231;29;20029;-66
2024/01/01 12:31:42;;;;;;;5.78;3.67;;;;;;;;;;4898766;29;20021;-67
2024/01/01 12:34:15;;;;;;;4.57;3.40;;;;;;;;;;4898849;29;20021;-67
2024/01/01 12:36:41;;;;;;;4.65;3.42;;;;;;;;;;4885599;29;20032;-67
2024/01/01 12:39:07;;;;;;;5.93;3.60;;;;;;;;;;4906409;29;20128;-68
2024/01/01 12:41:33;;;;;;;5.90;4.32;;;;;;;;;;4905059;29;20135;-67
2024/01/01 12:43:59;;;;;;;7.93;3.65;;;;;;;;;;4906126;29;20028;-67
2024/01/01 12:46:25;;;;;;;3.95;3.55;;;;;;;;;;4906341;29;20027;-67
2024/01/01 12:48:51;;;;;;;4.45;3.60;;;;;;;;;;4907042;29;20024;-67
2024/01/01 12:51:19;;;;;;;3.83;3.38;;;;;;;;;;4909433;29;20417;-68
2024/01/01 12:53:45;;;;;;;3.88;3.50;;;;;;;;;;4906662;29;20103;-67
2024/01/01 12:56:11;;;;;;;5.55;3.97;;;;;;;;;;4895632;29;20032;-67
2024/01/01 12:58:41;;;;;;;3.63;3.30;;;;;;;;;;4916777;29;20504;-65
2024/01/01 13:01:10;;;;;;;6.28;3.90;;;;;;;;;;4917197;29;20653;-66
2024/01/01 13:03:40;;;;;;;4.28;3.50;;;;;;;;;;4917171;29;20047;-66
2024/01/01 13:06:06;;;;;;;4.95;3.53;;;;;;;;;;4914330;29;20032;-67
2024/01/01 13:08:34;;;;;;;4.45;3.53;;;;;;;;;;4914617;29;20032;-67
2024/01/01 13:11:00;;;;;;;4.25;3.33;;;;;;;;;;4917202;29;20036;-67
2024/01/01 13:13:26;;;;;;;5.15;3.72;;;;;;;;;;4916733;29;20500;-67
2024/01/01 13:15:51;;;;;;;6.55;3.50;;;;;;;;;;4899803;29;20028;-66
2024/01/01 13:18:17;;;;;;;4.93;3.50;;;;;;;;;;4916852;29;20025;-67
2024/01/01 13:20:43;;;;;;;4.32;3.70;;;;;;;;;;4916612;29;20091;-67
2024/01/01 13:23:11;;;;;;;4.63;3.20;;;;;;;;;;4916788;29;20032;-67
2024/01/01 13:25:37;;;;;;;4.75;3.30;;;;;;;;;;4916745;29;20028;-67
2024/01/01 13:28:04;;;;;;;4.55;3.25;;;;;;;;;;4916631;29;20103;-67
2024/01/01 13:30:30;;;;;;;4.97;3.10;;;;;;;;;;4916648;29;20036;-67
2024/01/01 13:32:56;;;;;;;8.00;3.75;;;;;;;;;;4916445;29;20040;-69
2024/01/01 13:35:22;;;;;;;3.72;3.38;;;;;;;;;;4916580;29;20071;-67
2024/01/01 13:37:48;;;;;;;5.13;3.53;;;;;;;;;;4916408;29;20040;-67
2024/01/01 13:40:14;;;;;;;3.72;3.38;;;;;;;;;;4916732;29;20024;-67
2024/01/01 13:42:40;;;;;;;6.03;3.58;;;;;;;;;;4916410;29;20424;-67
2024/01/01 13:45:07;;;;;;;4.28;3.47;;;;;;;;;;4916545;29;20047;-67
2024/01/01 13:47:34;;;;;;;3.83;3.40;;;;;;;;;;4916423;29;20107;-68
2024/01/01 13:50:00;;;;;;;9.50;7.45;;;;;;;;;;4899259;29;20492;-69
2024/01/01 13:52:26;;;;;;;8.82;6.78;;;;;;;;;;4915394;29;20032;-69
2024/01/01 13:54:51;;;;;;;6.20;5.45;;;;;;;;;;4899014;29;20429;-69
2024/01/01 13:57:17;;;;;;;5.63;5.10;;;;;;;;;;4914571;29;20110;-69
2024/01/01 13:59:42;;;;;;;5.70;5.05;;;;;;;;;;4900650;29;20035;-68
2024/01/01 14:02:08;;;;;;;5.75;4.70;;;;;;;;;;4915467;29;20366;-68
2024/01/01 14:04:33;;;;;;;8.02;4.50;;;;;;;;;;4915948;29;20020;-68
2024/01/01 14:06:59;;;;;;;4.80;4.07;;;;;;;;;;4916515;29;20021;-68
2024/01/01 14:09:24;;;;;;;4.63;3.97;;;;;;;;;;4899259;29;20063;-68
2024/01/01 14:11:50;;;;;;;4.93;4.00;;;;;;;;;;4916224;29;20021;-68
2024/01/01 14:14:16;;;;;;;8.15;4.30;;;;;;;;;;4916557;29;20097;-67
2024/01/01 14:16:45;;;;;;;8.48;4.30;;;;;;;;;;4916116;29;20028;-68
2024/01/01 14:19:13;;;;;;;5.15;3.85;;;;;;;;;;4916134;29;20039;-68
2024/01/01 14:21:38;;;;;;;5.53;4.40;;;;;;;;;;4916037;29;20043;-68
2024/01/01 14:24:05;;;;;;;5.65;4.15;;;;;;;;;;4899329;29;20107;-68
2024/01/01 14:26:31;;;;;;;7.00;4.10;;;;;;;;;;4916137;29;20028;-68
2024/01/01 14:28:57;;;;;;;5.07;4.05;;;;;;;;;;4917877;29;20028;-68
2024/01/01 14:31:22;;;;;;;5.38;4.30;;;;;;;;;;4916021;29;20035;-68
2024/01/01 14:33:48;;;;;;;6.03;4.07;;;;;;;;;;4916069;29;20023;-68
2024/01/01 14:36:15;;;;;;;5.00;4.13;;;;;;;;;;4916051;29;20059;-68
2024/01/01 14:38:41;;;;;;;5.70;3.95;;;;;;;;;;4915775;29;20044;-68
2024/01/01 14:41:07;;;;;;;4.75;3.88;;;;;;;;;;4915915;29;20033;-68